This is the latest recevied weather packets stored in our database for station/object DD6UBW. If no packets are shown the sender has not sent any weather packets the latest 10 day(s).
| Time | Temp. | Humidity | Pressure | Rain* | Wind** | Luminosity | Snow |
|---|---|---|---|---|---|---|---|
| 1777422601 | 5.56° C | 58% | 1026.6 hPa | 0 mm | - | - | - |
| 1777420801 | 5.56° C | 57% | 1026.6 hPa | 0 mm | - | - | - |
| 1777419001 | 6.11° C | 57% | 1026.6 hPa | 0 mm | - | - | - |
| 1777417201 | 6.11° C | 56% | 1026.6 hPa | 0 mm | - | - | - |
| 1777415401 | 6.67° C | 54% | 1026.6 hPa | 0 mm | - | - | - |
| 1777413601 | 7.22° C | 54% | 1025.6 hPa | 0 mm | - | - | - |
| 1777410002 | 8.33° C | 49% | 1025.6 hPa | 0 mm | - | - | - |
| 1777408201 | 8.89° C | 46% | 1025.6 hPa | 0 mm | - | - | - |
| 1777406401 | 9.44° C | 44% | 1025.6 hPa | 0 mm | - | - | - |
| 1777404602 | 10° C | 42% | 1024.6 hPa | 0 mm | - | - | - |
| 1777402801 | 11.11° C | 41% | 1024.6 hPa | 0 mm | - | - | - |
| 1777401001 | 11.67° C | 41% | 1024.6 hPa | 0 mm | - | - | - |
| 1777399200 | 12.78° C | 36% | 1023.6 hPa | 0 mm | - | - | - |
| 1777397401 | 13.33° C | 34% | 1023.6 hPa | 0 mm | - | - | - |
| 1777395601 | 13.89° C | 31% | 1023.6 hPa | 0 mm | - | - | - |
| 1777393801 | 14.44° C | 30% | 1023.6 hPa | 0 mm | - | - | - |
| 1777392001 | 15° C | 28% | 1023.6 hPa | 0 mm | - | - | - |
| 1777388402 | 15.56° C | 25% | 1024.6 hPa | 0 mm | - | - | - |
| 1777386601 | 15° C | 25% | 1024.6 hPa | 0 mm | - | - | - |
| 1777384800 | 15.56° C | 26% | 1024.6 hPa | 0 mm | - | - | - |
| 1777383001 | 15.56° C | 27% | 1024.6 hPa | 0 mm | - | - | - |
| 1777381200 | 15° C | 27% | 1024.6 hPa | 0 mm | - | - | - |
| 1777379401 | 15.56° C | 27% | 1024.6 hPa | 0 mm | - | - | - |
| 1777377601 | 14.44° C | 27% | 1025.6 hPa | 0 mm | - | - | - |
| 1777375804 | 14.44° C | 26% | 1025.6 hPa | 0 mm | - | - | - |
* Rain since midnight (hover to see other rain measurements)
** Current wind speed in m/s (hover to see current wind gust speed)